Terminal Aerodrome Forecast
Issued by NWS

Home | Current Version | Previous Version | Text Only | Print | Product List | Glossary On
Versions: 1 2 3 4 5 6 7 8 9 10 11 12 13 14 15 16 17
665
FTUS43 KDVN 290151 AAB
TAFBRL
TAF AMD
KBRL 290151Z 2902/2924 19013KT P6SM OVC200
      TEMPO 2902/2904 20020G30KT 5SM SHRA BKN040
     FM290400 23009KT P6SM BKN080 PROB30 2911/2913 3SM TSRA OVC035CB
     FM291300 23012KT 4SM SHRA BR OVC035
     FM291800 19012KT P6SM BKN050 PROB30 2920/2924 3SM TSRA
      OVC035CB=

USA.gov is the U.S. government's official web portal to all federal, state and local government web resources and services.